Time,TemperatureF,DewpointF,PressureIn,WindDirection,WindDirectionDegrees,WindSpeedMPH,WindSpeedGustMPH,Humidity,HourlyPrecipIn,Conditions,Clouds,dailyrainin,SolarRadiationWatts/m^2,SoftwareType,DateUTC
2013-03-14 00:00:00,32.9,27.7,29.86,West,280,0.0,0.0,81,0.00,,---,0.00,0.00,VWS V14.01,2013-03-14 04:00:00,
2013-03-14 00:05:00,32.6,27.7,29.86,West,280,0.0,0.0,82,0.00,,---,0.00,0.00,VWS V14.01,2013-03-14 04:05:00,
2013-03-14 00:10:00,32.3,27.4,29.86,West,280,0.0,0.0,82,0.00,,---,0.00,0.00,VWS V14.01,2013-03-14 04:10:00,
2013-03-14 00:15:00,32.2,27.6,29.86,West,280,0.0,0.0,83,0.00,,---,0.00,0.00,VWS V14.01,2013-03-14 04:15:00,
2013-03-14 00:20:00,32.1,27.8,29.86,West,280,0.0,2.0,84,0.00,,---,0.00,0.00,VWS V14.01,2013-03-14 04:20:00,
2013-03-14 00:25:00,32.1,28.1,29.86,West,280,0.0,3.0,85,0.00,,---,0.00,0.00,VWS V14.01,2013-03-14 04:25:00,
2013-03-14 00:30:00,32.2,27.9,29.86,West,280,0.0,3.0,84,0.00,,---,0.00,0.00,VWS V14.01,2013-03-14 04:30:00,
2013-03-14 00:35:00,32.4,28.1,29.86,West,280,0.0,0.0,84,0.00,,---,0.00,0.00,VWS V14.01,2013-03-14 04:35:00,
2013-03-14 00:40:00,32.5,27.9,29.86,West,280,0.0,0.0,83,0.00,,---,0.00,0.00,VWS V14.01,2013-03-14 04:40:00,
2013-03-14 00:45:00,32.5,28.2,29.86,West,280,0.0,0.0,84,0.00,,---,0.00,0.00,VWS V14.01,2013-03-14 04:45:00,
2013-03-14 00:50:00,32.5,27.9,29.85,West,280,1.0,1.0,83,0.00,,---,0.00,0.00,VWS V14.01,2013-03-14 04:50:00,
2013-03-14 00:55:00,32.5,27.9,29.85,West,280,0.0,1.0,83,0.00,,---,0.00,0.00,VWS V14.01,2013-03-14 04:55:00,
2013-03-14 01:00:00,32.4,27.8,29.85,NE,38,0.0,1.0,83,0.00,,---,0.00,0.00,VWS V14.01,2013-03-14 05:00:00,
2013-03-14 01:05:00,32.4,27.8,29.85,NE,38,0.0,0.0,83,0.00,,---,0.00,0.00,VWS V14.01,2013-03-14 05:05:00,
2013-03-14 01:10:00,32.4,27.8,29.85,NE,38,1.0,2.0,83,0.00,,---,0.00,0.00,VWS V14.01,2013-03-14 05:10:00,
2013-03-14 01:15:00,32.3,27.4,29.85,NE,38,0.0,3.0,82,0.00,,---,0.00,0.00,VWS V14.01,2013-03-14 05:15:00,
2013-03-14 01:20:00,32.2,27.3,29.85,NE,38,0.0,3.0,82,0.00,,---,0.00,0.00,VWS V14.01,2013-03-14 05:20:00,
2013-03-14 01:25:00,32.1,27.8,29.85,NE,38,0.0,3.0,84,0.00,,---,0.00,0.00,VWS V14.01,2013-03-14 05:25:00,
2013-03-14 01:30:00,31.8,27.8,29.85,NE,38,0.0,3.0,85,0.00,,---,0.00,0.00,VWS V14.01,2013-03-14 05:30:00,
2013-03-14 01:35:00,31.5,27.8,29.85,NE,38,0.0,0.0,86,0.00,,---,0.00,0.00,VWS V14.01,2013-03-14 05:35:00,
2013-03-14 01:40:00,31.1,28.0,29.86,NE,38,0.0,0.0,88,0.00,,---,0.00,0.00,VWS V14.01,2013-03-14 05:40:00,
2013-03-14 01:45:00,30.7,28.1,29.86,West,261,1.0,1.0,90,0.00,,---,0.00,0.00,VWS V14.01,2013-03-14 05:45:00,
2013-03-14 01:50:00,30.1,27.5,29.86,NW,319,0.0,8.0,90,0.00,,---,0.00,0.00,VWS V14.01,2013-03-14 05:50:00,
2013-03-14 01:55:00,29.7,27.4,29.86,NW,319,0.0,8.0,91,0.00,,---,0.00,0.00,VWS V14.01,2013-03-14 05:55:00,
2013-03-14 02:00:00,29.6,27.3,29.86,NW,319,0.0,8.0,91,0.00,,---,0.00,0.00,VWS V14.01,2013-03-14 06:00:00,
2013-03-14 02:05:00,29.4,27.1,29.86,NW,319,0.0,0.0,91,0.00,,---,0.00,0.00,VWS V14.01,2013-03-14 06:05:00,
2013-03-14 02:10:00,29.4,27.1,29.86,NW,319,0.0,0.0,91,0.00,,---,0.00,0.00,VWS V14.01,2013-03-14 06:10:00,
2013-03-14 02:15:00,29.4,27.1,29.86,NW,319,0.0,0.0,91,0.00,,---,0.00,0.00,VWS V14.01,2013-03-14 06:15:00,
2013-03-14 02:20:00,29.4,26.8,29.86,NW,319,0.0,0.0,90,0.00,,---,0.00,0.00,VWS V14.01,2013-03-14 06:20:00,
2013-03-14 02:25:00,29.4,26.8,29.86,NW,319,0.0,0.0,90,0.00,,---,0.00,0.00,VWS V14.01,2013-03-14 06:25:00,
2013-03-14 02:30:00,29.4,26.3,29.86,NW,319,0.0,0.0,88,0.00,,---,0.00,0.00,VWS V14.01,2013-03-14 06:30:00,
2013-03-14 02:35:00,29.5,25.6,29.86,NNW,336,0.0,3.0,85,0.00,,---,0.00,0.00,VWS V14.01,2013-03-14 06:35:00,
2013-03-14 02:40:00,29.6,25.6,29.86,WSW,250,3.0,3.0,85,0.00,,---,0.00,0.00,VWS V14.01,2013-03-14 06:40:00,
2013-03-14 02:45:00,29.7,25.2,29.86,NE,55,0.0,6.0,83,0.00,,---,0.00,0.00,VWS V14.01,2013-03-14 06:45:00,
2013-03-14 02:50:00,29.8,25.3,29.86,West,264,0.0,6.0,83,0.00,,---,0.00,0.00,VWS V14.01,2013-03-14 06:50:00,
2013-03-14 02:55:00,29.9,25.1,29.86,West,264,0.0,6.0,82,0.00,,---,0.00,0.00,VWS V14.01,2013-03-14 06:55:00,
2013-03-14 03:00:00,29.9,24.8,29.86,West,269,0.0,6.0,81,0.00,,---,0.00,0.00,VWS V14.01,2013-03-14 07:00:00,
2013-03-14 03:05:00,30.0,24.6,29.86,NNE,28,0.0,4.0,80,0.00,,---,0.00,0.00,VWS V14.01,2013-03-14 07:05:00,
2013-03-14 03:10:00,30.0,24.3,29.86,East,90,0.0,4.0,79,0.00,,---,0.00,0.00,VWS V14.01,2013-03-14 07:10:00,
2013-03-14 03:15:00,30.0,24.0,29.86,SW,230,1.0,4.0,78,0.00,,---,0.00,0.00,VWS V14.01,2013-03-14 07:15:00,
2013-03-14 03:20:00,29.9,23.6,29.85,East,84,3.0,5.0,77,0.00,,---,0.00,0.00,VWS V14.01,2013-03-14 07:20:00,
2013-03-14 03:25:00,29.8,23.2,29.86,SW,235,0.0,5.0,76,0.00,,---,0.00,0.00,VWS V14.01,2013-03-14 07:25:00,
2013-03-14 03:30:00,29.8,22.9,29.86,SW,235,0.0,5.0,75,0.00,,---,0.00,0.00,VWS V14.01,2013-03-14 07:30:00,
2013-03-14 03:35:00,29.7,22.4,29.86,WSW,250,3.0,3.0,74,0.00,,---,0.00,0.00,VWS V14.01,2013-03-14 07:35:00,
2013-03-14 03:40:00,29.6,21.4,29.85,WSW,254,2.0,5.0,71,0.00,,---,0.00,0.00,VWS V14.01,2013-03-14 07:40:00,
2013-03-14 03:45:00,29.6,21.4,29.85,WNW,296,0.0,5.0,71,0.00,,---,0.00,0.00,VWS V14.01,2013-03-14 07:45:00,
2013-03-14 03:50:00,29.5,21.3,29.85,West,270,1.0,5.0,71,0.00,,---,0.00,0.00,VWS V14.01,2013-03-14 07:50:00,
2013-03-14 03:55:00,29.5,20.9,29.85,NNE,32,2.0,5.0,70,0.00,,---,0.00,0.00,VWS V14.01,2013-03-14 07:55:00,
2013-03-14 04:00:00,29.4,20.8,29.85,WSW,237,0.0,6.0,70,0.00,,---,0.00,0.00,VWS V14.01,2013-03-14 08:00:00,
2013-03-14 04:05:00,29.4,20.8,29.85,West,263,0.0,2.0,70,0.00,,---,0.00,0.00,VWS V14.01,2013-03-14 08:05:00,
2013-03-14 04:10:00,29.3,20.4,29.85,NE,44,0.0,3.0,69,0.00,,---,0.00,0.00,VWS V14.01,2013-03-14 08:10:00,
2013-03-14 04:15:00,29.3,20.7,29.85,NE,44,0.0,3.0,70,0.00,,---,0.00,0.00,VWS V14.01,2013-03-14 08:15:00,
2013-03-14 04:20:00,29.2,20.3,29.85,NW,305,2.0,4.0,69,0.00,,---,0.00,0.00,VWS V14.01,2013-03-14 08:20:00,
2013-03-14 04:25:00,29.1,19.5,29.85,NW,317,0.0,7.0,67,0.00,,---,0.00,0.00,VWS V14.01,2013-03-14 08:25:00,
2013-03-14 04:30:00,28.9,19.3,29.85,SSW,192,0.0,7.0,67,0.00,,---,0.00,0.00,VWS V14.01,2013-03-14 08:30:00,
2013-03-14 04:41:00,28.9,19.7,29.85,SSW,192,0.0,7.0,68,0.00,,---,0.00,0.00,VWS V14.01,2013-03-14 08:41:00,
2013-03-14 04:46:00,28.5,19.0,29.85,West,259,0.0,7.0,67,0.00,,---,0.00,0.00,VWS V14.01,2013-03-14 08:46:00,
2013-03-14 04:51:00,28.5,18.6,29.85,NW,306,0.0,7.0,66,0.00,,---,0.00,0.00,VWS V14.01,2013-03-14 08:51:00,
2013-03-14 04:56:00,28.4,18.5,29.85,WNW,302,0.0,7.0,66,0.00,,---,0.00,0.00,VWS V14.01,2013-03-14 08:56:00,
2013-03-14 05:00:00,28.4,18.5,29.85,NW,321,0.0,7.0,66,0.00,,---,0.00,0.00,VWS V14.01,2013-03-14 09:00:00,
2013-03-14 05:01:00,28.4,18.5,29.85,NW,321,0.0,0.0,66,0.00,,---,0.00,0.00,VWS V14.01,2013-03-14 09:01:00,
2013-03-14 05:06:00,28.3,18.4,29.85,West,263,0.0,2.0,66,0.00,,---,0.00,0.00,VWS V14.01,2013-03-14 09:06:00,
2013-03-14 05:11:00,28.3,18.4,29.85,WSW,255,0.0,5.0,66,0.00,,---,0.00,0.00,VWS V14.01,2013-03-14 09:11:00,
2013-03-14 05:16:00,28.3,18.1,29.85,West,274,3.0,6.0,65,0.00,,---,0.00,0.00,VWS V14.01,2013-03-14 09:16:00,
2013-03-14 05:21:00,28.2,18.0,29.85,North,5,0.0,8.0,65,0.00,,---,0.00,0.00,VWS V14.01,2013-03-14 09:21:00,
2013-03-14 05:26:00,28.2,18.3,29.85,WSW,240,1.0,8.0,66,0.00,,---,0.00,0.00,VWS V14.01,2013-03-14 09:26:00,
2013-03-14 05:30:00,28.1,18.2,29.85,WSW,237,2.0,8.0,66,0.00,,---,0.00,0.00,VWS V14.01,2013-03-14 09:30:00,
2013-03-14 05:31:00,28.1,18.2,29.85,WSW,237,2.0,2.0,66,0.00,,---,0.00,0.00,VWS V14.01,2013-03-14 09:31:00,
2013-03-14 05:36:00,28.0,18.1,29.85,NNE,24,0.0,5.0,66,0.00,,---,0.00,0.00,VWS V14.01,2013-03-14 09:36:00,
2013-03-14 05:41:00,28.0,18.5,29.85,ENE,65,2.0,5.0,67,0.00,,---,0.00,0.00,VWS V14.01,2013-03-14 09:41:00,
2013-03-14 05:46:00,27.9,17.7,29.85,WNW,285,0.0,7.0,65,0.00,,---,0.00,0.00,VWS V14.01,2013-03-14 09:46:00,
2013-03-14 05:51:00,27.8,17.9,29.85,ENE,63,0.0,7.0,66,0.00,,---,0.00,0.00,VWS V14.01,2013-03-14 09:51:00,
2013-03-14 05:56:00,27.7,17.8,29.86,West,267,3.0,7.0,66,0.00,,---,0.00,0.00,VWS V14.01,2013-03-14 09:56:00,
2013-03-14 06:00:00,27.6,17.7,29.86,West,267,0.0,7.0,66,0.00,,---,0.00,0.00,VWS V14.01,2013-03-14 10:00:00,
2013-03-14 06:01:00,27.6,17.7,29.86,West,267,0.0,2.0,66,0.00,,---,0.00,0.00,VWS V14.01,2013-03-14 10:01:00,
2013-03-14 06:06:00,27.5,17.3,29.86,NNE,19,0.0,7.0,65,0.00,,---,0.00,0.00,VWS V14.01,2013-03-14 10:06:00,
2013-03-14 06:11:00,27.3,17.5,29.86,NNE,19,0.0,7.0,66,0.00,,---,0.00,0.00,VWS V14.01,2013-03-14 10:11:00,
2013-03-14 06:16:00,27.2,17.0,29.86,WNW,290,2.0,7.0,65,0.00,,---,0.00,0.00,VWS V14.01,2013-03-14 10:16:00,
2013-03-14 06:21:00,27.0,17.2,29.86,WNW,290,2.0,7.0,66,0.00,,---,0.00,0.00,VWS V14.01,2013-03-14 10:21:00,
2013-03-14 06:26:00,26.8,17.3,29.86,WNW,290,0.0,7.0,67,0.00,,---,0.00,0.00,VWS V14.01,2013-03-14 10:26:00,
2013-03-14 06:30:00,26.7,17.2,29.86,WNW,290,0.0,7.0,67,0.00,,---,0.00,0.00,VWS V14.01,2013-03-14 10:30:00,
2013-03-14 06:31:00,26.7,17.2,29.86,WNW,290,0.0,0.0,67,0.00,,---,0.00,0.00,VWS V14.01,2013-03-14 10:31:00,
2013-03-14 06:36:00,26.7,17.2,29.86,WNW,290,0.0,0.0,67,0.00,,---,0.00,0.00,VWS V14.01,2013-03-14 10:36:00,
2013-03-14 06:41:00,26.7,17.9,29.86,SE,138,0.0,2.0,69,0.00,,---,0.00,0.00,VWS V14.01,2013-03-14 10:41:00,
2013-03-14 06:46:00,26.6,17.8,29.86,SE,138,0.0,2.0,69,0.00,,---,0.00,0.00,VWS V14.01,2013-03-14 10:46:00,
2013-03-14 06:51:00,26.6,17.8,29.86,SE,138,0.0,2.0,69,0.00,,---,0.00,0.00,VWS V14.01,2013-03-14 10:51:00,
2013-03-14 06:56:00,26.6,17.5,29.86,SE,138,0.0,2.0,68,0.00,,---,0.00,0.00,VWS V14.01,2013-03-14 10:56:00,
2013-03-14 07:00:00,26.6,17.8,29.86,SSW,200,3.0,3.0,69,0.00,,---,0.00,0.00,VWS V14.01,2013-03-14 11:00:00,
2013-03-14 07:01:00,26.6,17.8,29.86,SSW,200,2.0,3.0,69,0.00,,---,0.00,0.00,VWS V14.01,2013-03-14 11:01:00,
2013-03-14 07:06:00,26.7,17.9,29.86,NW,309,0.0,4.0,69,0.00,,---,0.00,0.00,VWS V14.01,2013-03-14 11:06:00,
2013-03-14 07:11:00,26.9,18.1,29.87,NW,311,0.0,5.0,69,0.00,,---,0.00,0.00,VWS V14.01,2013-03-14 11:11:00,
2013-03-14 07:16:00,26.8,17.3,29.87,WSW,246,8.0,14.0,67,0.00,,---,0.00,5.00,VWS V14.01,2013-03-14 11:16:00,
2013-03-14 07:21:00,26.6,17.1,29.87,NW,304,0.0,14.0,67,0.00,,---,0.00,7.00,VWS V14.01,2013-03-14 11:21:00,
2013-03-14 07:26:00,26.5,17.4,29.87,WNW,286,3.0,5.0,68,0.00,,---,0.00,7.00,VWS V14.01,2013-03-14 11:26:00,
2013-03-14 07:30:00,26.4,18.0,29.87,West,281,4.0,8.0,70,0.00,,---,0.00,9.00,VWS V14.01,2013-03-14 11:30:00,
2013-03-14 07:31:00,26.4,17.6,29.87,WNW,297,1.0,4.0,69,0.00,,---,0.00,9.00,VWS V14.01,2013-03-14 11:31:00,
2013-03-14 07:36:00,26.2,17.1,29.87,West,279,0.0,9.0,68,0.00,,---,0.00,11.00,VWS V14.01,2013-03-14 11:36:00,
2013-03-14 07:41:00,26.1,17.3,29.88,NW,320,0.0,1.0,69,0.00,,---,0.00,16.00,VWS V14.01,2013-03-14 11:41:00,
2013-03-14 07:46:00,25.9,17.5,29.88,South,169,0.0,3.0,70,0.00,,---,0.00,18.00,VWS V14.01,2013-03-14 11:46:00,
2013-03-14 07:52:00,25.8,16.7,29.88,WSW,242,2.0,2.0,68,0.00,,---,0.00,21.00,VWS V14.01,2013-03-14 11:52:00,
2013-03-14 07:57:00,25.7,17.0,29.89,West,276,0.0,6.0,69,0.00,,---,0.00,23.00,VWS V14.01,2013-03-14 11:57:00,
2013-03-14 08:00:00,25.6,16.9,29.89,SW,236,0.0,7.0,69,0.00,,---,0.00,28.00,VWS V14.01,2013-03-14 12:00:00,
2013-03-14 08:02:00,25.5,16.8,29.89,West,269,2.0,3.0,69,0.00,,---,0.00,30.00,VWS V14.01,2013-03-14 12:02:00,
2013-03-14 08:07:00,25.2,16.1,29.89,SW,229,5.0,12.0,68,0.00,,---,0.00,37.00,VWS V14.01,2013-03-14 12:07:00,
2013-03-14 08:12:00,24.9,14.8,29.89,West,270,3.0,12.0,65,0.00,,---,0.00,47.00,VWS V14.01,2013-03-14 12:12:00,
2013-03-14 08:17:00,24.9,14.8,29.89,WSW,245,2.0,12.0,65,0.00,,---,0.00,56.00,VWS V14.01,2013-03-14 12:17:00,
2013-03-14 08:22:00,25.0,14.9,29.89,WNW,287,1.0,13.0,65,0.00,,---,0.00,62.00,VWS V14.01,2013-03-14 12:22:00,
2013-03-14 08:27:00,25.0,14.9,29.89,WNW,298,0.0,13.0,65,0.00,,---,0.00,67.00,VWS V14.01,2013-03-14 12:27:00,
2013-03-14 08:30:00,25.1,15.0,29.89,West,274,1.0,13.0,65,0.00,,---,0.00,63.00,VWS V14.01,2013-03-14 12:30:00,
2013-03-14 08:32:00,25.1,15.0,29.89,WSW,241,0.0,4.0,65,0.00,,---,0.00,60.00,VWS V14.01,2013-03-14 12:32:00,
2013-03-14 08:37:00,25.1,15.0,29.90,WNW,297,0.0,4.0,65,0.00,,---,0.00,54.00,VWS V14.01,2013-03-14 12:37:00,
2013-03-14 08:42:00,25.1,14.6,29.90,NE,49,2.0,5.0,64,0.00,,---,0.00,60.00,VWS V14.01,2013-03-14 12:42:00,
2013-03-14 08:47:00,25.0,14.6,29.90,West,273,0.0,5.0,64,0.00,,---,0.00,65.00,VWS V14.01,2013-03-14 12:47:00,
2013-03-14 08:52:00,24.7,13.6,29.91,West,275,2.0,11.0,62,0.00,,---,0.00,72.00,VWS V14.01,2013-03-14 12:52:00,
2013-03-14 08:57:00,24.4,12.5,29.90,WNW,294,12.0,15.0,60,0.00,,---,0.00,90.00,VWS V14.01,2013-03-14 12:57:00,
2013-03-14 09:00:00,24.4,12.9,29.91,NE,51,7.0,15.0,61,0.00,,---,0.00,104.00,VWS V14.01,2013-03-14 13:00:00,
2013-03-14 09:02:00,24.3,13.2,29.90,West,263,4.0,7.0,62,0.00,,---,0.00,114.00,VWS V14.01,2013-03-14 13:02:00,
2013-03-14 09:07:00,24.4,13.3,29.90,West,263,6.0,11.0,62,0.00,,---,0.00,186.00,VWS V14.01,2013-03-14 13:07:00,
2013-03-14 09:12:00,24.7,13.6,29.90,WSW,242,3.0,11.0,62,0.00,,---,0.00,186.00,VWS V14.01,2013-03-14 13:12:00,
2013-03-14 09:17:00,24.9,13.7,29.90,West,277,4.0,11.0,62,0.00,,---,0.00,169.00,VWS V14.01,2013-03-14 13:17:00,
2013-03-14 09:22:00,25.0,13.8,29.91,West,270,0.0,11.0,62,0.00,,---,0.00,174.00,VWS V14.01,2013-03-14 13:22:00,
2013-03-14 09:27:00,25.1,13.9,29.91,West,279,2.0,11.0,62,0.00,,---,0.00,329.00,VWS V14.01,2013-03-14 13:27:00,
2013-03-14 09:30:00,25.4,14.2,29.91,NNW,327,0.0,11.0,62,0.00,,---,0.00,445.00,VWS V14.01,2013-03-14 13:30:00,
2013-03-14 09:32:00,25.6,14.4,29.91,WNW,293,4.0,9.0,62,0.00,,---,0.00,429.00,VWS V14.01,2013-03-14 13:32:00,
2013-03-14 09:37:00,26.0,14.4,29.91,West,274,2.0,14.0,61,0.00,,---,0.00,308.00,VWS V14.01,2013-03-14 13:37:00,
2013-03-14 09:49:00,25.9,14.3,29.91,WSW,248,4.0,14.0,61,0.00,,---,0.00,325.00,VWS V14.01,2013-03-14 13:49:00,
2013-03-14 09:54:00,26.0,13.3,29.91,West,272,6.0,14.0,58,0.00,,---,0.00,425.00,VWS V14.01,2013-03-14 13:54:00,
2013-03-14 09:59:00,25.8,13.9,29.91,West,274,7.0,14.0,60,0.00,,---,0.00,457.00,VWS V14.01,2013-03-14 13:59:00,
2013-03-14 10:00:00,25.8,14.6,29.92,WNW,296,0.0,14.0,62,0.00,,---,0.00,538.00,VWS V14.01,2013-03-14 14:00:00,
2013-03-14 10:04:00,26.0,14.8,29.92,West,275,4.0,8.0,62,0.00,,---,0.00,385.00,VWS V14.01,2013-03-14 14:04:00,
2013-03-14 10:09:00,26.2,15.0,29.91,NW,306,2.0,12.0,62,0.00,,---,0.00,570.00,VWS V14.01,2013-03-14 14:09:00,
2013-03-14 10:14:00,26.5,14.5,29.91,West,275,3.0,12.0,60,0.00,,---,0.00,485.00,VWS V14.01,2013-03-14 14:14:00,
2013-03-14 10:19:00,26.7,13.9,29.91,West,279,7.0,18.0,58,0.00,,---,0.00,534.00,VWS V14.01,2013-03-14 14:19:00,
2013-03-14 10:24:00,26.4,13.6,29.91,NW,323,4.0,18.0,58,0.00,,---,0.00,260.00,VWS V14.01,2013-03-14 14:24:00,
2013-03-14 10:29:00,26.1,14.5,29.91,West,275,13.0,18.0,61,0.00,,---,0.00,262.00,VWS V14.01,2013-03-14 14:29:00,
2013-03-14 10:30:00,26.1,14.1,29.91,WSW,253,3.0,18.0,60,0.00,,---,0.00,434.00,VWS V14.01,2013-03-14 14:30:00,
2013-03-14 10:34:00,26.2,14.6,29.91,WNW,294,3.0,12.0,61,0.00,,---,0.00,457.00,VWS V14.01,2013-03-14 14:34:00,
2013-03-14 10:39:00,26.5,14.1,29.91,South,189,1.0,12.0,59,0.00,,---,0.00,232.00,VWS V14.01,2013-03-14 14:39:00,
2013-03-14 10:44:00,26.9,15.6,29.91,SW,217,10.0,12.0,62,0.00,,---,0.00,547.00,VWS V14.01,2013-03-14 14:44:00,
2013-03-14 10:49:00,26.9,13.7,29.90,West,279,9.0,18.0,57,0.00,,---,0.00,710.00,VWS V14.01,2013-03-14 14:49:00,
2013-03-14 10:54:00,26.7,15.1,29.91,WSW,251,9.0,18.0,61,0.00,,---,0.00,380.00,VWS V14.01,2013-03-14 14:54:00,
2013-03-14 10:59:00,26.4,15.2,29.91,West,266,4.0,18.0,62,0.00,,---,0.00,241.00,VWS V14.01,2013-03-14 14:59:00,
2013-03-14 11:00:00,26.3,15.8,29.91,WNW,298,3.0,18.0,64,0.00,,---,0.00,248.00,VWS V14.01,2013-03-14 15:00:00,
2013-03-14 11:04:00,26.1,15.6,29.91,NE,51,1.0,15.0,64,0.00,,---,0.00,529.00,VWS V14.01,2013-03-14 15:04:00,
2013-03-14 11:09:00,26.5,16.0,29.91,West,277,6.0,15.0,64,0.00,,---,0.00,522.00,VWS V14.01,2013-03-14 15:09:00,
2013-03-14 11:14:00,27.0,15.4,29.91,WSW,246,4.0,15.0,61,0.00,,---,0.00,606.00,VWS V14.01,2013-03-14 15:14:00,
2013-03-14 11:19:00,27.6,16.7,29.91,West,280,0.0,15.0,63,0.00,,---,0.00,686.00,VWS V14.01,2013-03-14 15:19:00,
2013-03-14 11:24:00,27.9,15.1,29.91,West,262,4.0,15.0,58,0.00,,---,0.00,420.00,VWS V14.01,2013-03-14 15:24:00,
2013-03-14 11:29:00,27.5,14.3,29.90,WSW,257,3.0,15.0,57,0.01,,---,0.01,422.00,VWS V14.01,2013-03-14 15:29:00,
2013-03-14 11:30:00,27.2,14.4,29.90,WNW,282,0.0,15.0,58,0.01,,---,0.01,387.00,VWS V14.01,2013-03-14 15:30:00,
2013-03-14 11:34:00,27.2,15.9,29.90,NE,54,3.0,6.0,62,0.01,,---,0.01,378.00,VWS V14.01,2013-03-14 15:34:00,
2013-03-14 11:39:00,27.2,14.4,29.90,West,263,5.0,12.0,58,0.01,,---,0.01,338.00,VWS V14.01,2013-03-14 15:39:00,
2013-03-14 11:44:00,27.1,15.1,29.90,WNW,293,0.0,12.0,60,0.01,,---,0.01,359.00,VWS V14.01,2013-03-14 15:44:00,
2013-03-14 11:49:00,27.5,15.4,29.90,West,279,3.0,12.0,60,0.01,,---,0.01,510.00,VWS V14.01,2013-03-14 15:49:00,
2013-03-14 11:54:00,27.5,16.2,29.90,West,271,5.0,17.0,62,0.01,,---,0.01,330.00,VWS V14.01,2013-03-14 15:54:00,
2013-03-14 11:59:00,27.4,14.6,29.90,WSW,244,4.0,17.0,58,0.01,,---,0.01,403.00,VWS V14.01,2013-03-14 15:59:00,
2013-03-14 12:00:00,27.4,14.6,29.90,West,270,3.0,17.0,58,0.01,,---,0.01,276.00,VWS V14.01,2013-03-14 16:00:00,
2013-03-14 12:04:00,27.4,15.0,29.90,NNW,327,2.0,6.0,59,0.01,,---,0.01,295.00,VWS V14.01,2013-03-14 16:04:00,
2013-03-14 12:09:00,27.2,15.2,29.90,East,98,2.0,10.0,60,0.01,,---,0.01,301.00,VWS V14.01,2013-03-14 16:09:00,
2013-03-14 12:14:00,27.1,14.7,29.90,ENE,72,5.0,10.0,59,0.01,,---,0.01,313.00,VWS V14.01,2013-03-14 16:14:00,
2013-03-14 12:19:00,26.9,14.9,29.90,WNW,287,5.0,16.0,60,0.01,,---,0.01,311.00,VWS V14.01,2013-03-14 16:19:00,
2013-03-14 12:24:00,26.3,14.3,29.90,NW,319,3.0,16.0,60,0.01,,---,0.01,315.00,VWS V14.01,2013-03-14 16:24:00,
2013-03-14 12:29:00,26.5,15.6,29.90,WSW,248,12.0,16.0,63,0.01,,---,0.01,362.00,VWS V14.01,2013-03-14 16:29:00,
2013-03-14 12:30:00,26.5,15.3,29.90,WNW,302,7.0,16.0,62,0.01,,---,0.01,432.00,VWS V14.01,2013-03-14 16:30:00,
2013-03-14 12:34:00,26.4,14.8,29.90,WNW,297,0.0,9.0,61,0.00,,---,0.01,411.00,VWS V14.01,2013-03-14 16:34:00,
2013-03-14 12:39:00,26.7,15.1,29.90,WNW,286,4.0,12.0,61,0.00,,---,0.01,353.00,VWS V14.01,2013-03-14 16:39:00,
2013-03-14 12:44:00,26.9,14.5,29.90,WNW,289,3.0,13.0,59,0.00,,---,0.01,355.00,VWS V14.01,2013-03-14 16:44:00,
2013-03-14 12:49:00,26.7,13.9,29.90,ENE,65,2.0,17.0,58,0.00,,---,0.01,327.00,VWS V14.01,2013-03-14 16:49:00,
2013-03-14 12:54:00,27.1,13.9,29.90,West,263,7.0,18.0,57,0.00,,---,0.01,385.00,VWS V14.01,2013-03-14 16:54:00,
2013-03-14 12:59:00,26.8,13.6,29.90,WNW,302,10.0,18.0,57,0.00,,---,0.01,345.00,VWS V14.01,2013-03-14 16:59:00,
2013-03-14 13:00:00,26.8,13.6,29.90,ENE,78,0.0,18.0,57,0.00,,---,0.01,383.00,VWS V14.01,2013-03-14 17:00:00,
2013-03-14 13:04:00,26.8,14.0,29.90,WSW,250,4.0,6.0,58,0.00,,---,0.01,341.00,VWS V14.01,2013-03-14 17:04:00,
2013-03-14 13:09:00,27.1,14.3,29.90,West,281,6.0,6.0,58,0.00,,---,0.01,399.00,VWS V14.01,2013-03-14 17:09:00,
2013-03-14 13:14:00,27.4,14.6,29.90,SW,227,4.0,7.0,58,0.00,,---,0.01,482.00,VWS V14.01,2013-03-14 17:14:00,
2013-03-14 13:19:00,27.1,13.5,29.90,WNW,289,7.0,18.0,56,0.00,,---,0.01,533.00,VWS V14.01,2013-03-14 17:19:00,
2013-03-14 13:24:00,27.3,14.1,29.90,WNW,288,7.0,18.0,57,0.00,,---,0.01,536.00,VWS V14.01,2013-03-14 17:24:00,
2013-03-14 13:29:00,27.2,13.6,29.90,NW,314,1.0,18.0,56,0.00,,---,0.01,526.00,VWS V14.01,2013-03-14 17:29:00,
2013-03-14 13:30:00,27.3,14.5,29.90,NW,315,2.0,18.0,58,0.00,,---,0.01,555.00,VWS V14.01,2013-03-14 17:30:00,
2013-03-14 13:34:00,27.8,15.4,29.90,SE,136,2.0,7.0,59,0.00,,---,0.01,814.00,VWS V14.01,2013-03-14 17:34:00,
2013-03-14 13:39:00,28.5,14.8,29.90,West,269,2.0,13.0,56,0.00,,---,0.01,814.00,VWS V14.01,2013-03-14 17:39:00,
2013-03-14 13:44:00,27.7,14.1,29.90,WSW,254,5.0,14.0,56,0.00,,---,0.01,471.00,VWS V14.01,2013-03-14 17:44:00,
2013-03-14 13:49:00,27.6,14.4,29.90,NW,317,4.0,15.0,57,0.00,,---,0.01,301.00,VWS V14.01,2013-03-14 17:49:00,
2013-03-14 13:54:00,27.1,13.5,29.89,WNW,303,2.0,15.0,56,0.00,,---,0.01,552.00,VWS V14.01,2013-03-14 17:54:00,
2013-03-14 13:59:00,27.2,14.4,29.90,NW,314,3.0,15.0,58,0.00,,---,0.01,446.00,VWS V14.01,2013-03-14 17:59:00,
2013-03-14 14:00:00,27.1,13.9,29.89,West,267,9.0,15.0,57,0.00,,---,0.01,366.00,VWS V14.01,2013-03-14 18:00:00,
2013-03-14 14:04:00,26.9,13.7,29.89,WSW,254,2.0,13.0,57,0.00,,---,0.01,369.00,VWS V14.01,2013-03-14 18:04:00,
2013-03-14 14:16:00,27.0,14.2,29.89,WSW,247,1.0,13.0,58,0.00,,---,0.01,424.00,VWS V14.01,2013-03-14 18:16:00,
2013-03-14 14:21:00,27.3,14.9,29.89,WSW,250,2.0,13.0,59,0.00,,---,0.01,497.00,VWS V14.01,2013-03-14 18:21:00,
2013-03-14 14:26:00,27.8,15.0,29.89,West,271,2.0,13.0,58,0.00,,---,0.01,385.00,VWS V14.01,2013-03-14 18:26:00,
2013-03-14 14:30:00,28.0,14.8,29.88,West,270,8.0,13.0,57,0.00,,---,0.01,360.00,VWS V14.01,2013-03-14 18:30:00,
2013-03-14 14:31:00,27.9,14.6,29.88,West,269,6.0,8.0,57,0.00,,---,0.01,360.00,VWS V14.01,2013-03-14 18:31:00,
2013-03-14 14:36:00,27.8,14.6,29.88,SSE,148,2.0,14.0,57,0.00,,---,0.01,362.00,VWS V14.01,2013-03-14 18:36:00,
2013-03-14 14:41:00,28.3,14.6,29.88,West,263,4.0,14.0,56,0.00,,---,0.01,399.00,VWS V14.01,2013-03-14 18:41:00,
2013-03-14 14:46:00,28.4,14.3,29.88,West,264,1.0,14.0,55,0.00,,---,0.01,353.00,VWS V14.01,2013-03-14 18:46:00,
2013-03-14 14:51:00,28.3,14.2,29.88,WSW,252,7.0,14.0,55,0.00,,---,0.01,396.00,VWS V14.01,2013-03-14 18:51:00,
2013-03-14 14:56:00,28.4,14.7,29.87,NNW,327,0.0,14.0,56,0.00,,---,0.01,459.00,VWS V14.01,2013-03-14 18:56:00,
2013-03-14 15:00:00,28.3,15.0,29.88,WSW,252,4.0,14.0,57,0.00,,---,0.01,436.00,VWS V14.01,2013-03-14 19:00:00,
2013-03-14 15:01:00,28.4,15.1,29.87,WSW,237,10.0,10.0,57,0.00,,---,0.01,436.00,VWS V14.01,2013-03-14 19:01:00,
2013-03-14 15:06:00,28.5,14.8,29.87,NW,306,5.0,13.0,56,0.00,,---,0.01,334.00,VWS V14.01,2013-03-14 19:06:00,
2013-03-14 15:12:00,28.0,14.8,29.87,NW,306,3.0,13.0,57,0.00,,---,0.01,309.00,VWS V14.01,2013-03-14 19:12:00,
2013-03-14 15:17:00,27.9,14.6,29.87,SW,229,3.0,13.0,57,0.00,,---,0.01,304.00,VWS V14.01,2013-03-14 19:17:00,
2013-03-14 15:22:00,28.0,14.8,29.87,SSW,209,0.0,13.0,57,0.00,,---,0.01,320.00,VWS V14.01,2013-03-14 19:22:00,
2013-03-14 15:27:00,28.0,14.8,29.86,WSW,240,2.0,13.0,57,0.00,,---,0.01,306.00,VWS V14.01,2013-03-14 19:27:00,
2013-03-14 15:30:00,28.2,15.3,29.87,West,278,9.0,13.0,58,0.00,,---,0.01,334.00,VWS V14.01,2013-03-14 19:30:00,
2013-03-14 15:32:00,28.2,14.9,29.87,WNW,293,2.0,9.0,57,0.00,,---,0.01,299.00,VWS V14.01,2013-03-14 19:32:00,
2013-03-14 15:37:00,28.1,14.8,29.87,SW,226,1.0,14.0,57,0.00,,---,0.01,283.00,VWS V14.01,2013-03-14 19:37:00,
2013-03-14 15:42:00,28.0,15.1,29.87,ENE,62,2.0,14.0,58,0.00,,---,0.01,244.00,VWS V14.01,2013-03-14 19:42:00,
2013-03-14 15:47:00,28.0,15.1,29.87,WSW,243,2.0,14.0,58,0.00,,---,0.01,232.00,VWS V14.01,2013-03-14 19:47:00,
2013-03-14 15:52:00,28.1,15.2,29.86,SW,220,1.0,14.0,58,0.00,,---,0.01,236.00,VWS V14.01,2013-03-14 19:52:00,
2013-03-14 15:57:00,28.1,14.8,29.86,West,269,6.0,14.0,57,0.00,,---,0.01,285.00,VWS V14.01,2013-03-14 19:57:00,
2013-03-14 16:00:00,28.4,15.9,29.86,West,281,1.0,14.0,59,0.00,,---,0.01,241.00,VWS V14.01,2013-03-14 20:00:00,
2013-03-14 16:02:00,28.4,15.9,29.86,West,281,0.0,3.0,59,0.00,,---,0.01,271.00,VWS V14.01,2013-03-14 20:02:00,
2013-03-14 16:07:00,28.8,16.3,29.86,West,266,2.0,5.0,59,0.00,,---,0.01,239.00,VWS V14.01,2013-03-14 20:07:00,
2013-03-14 16:12:00,29.0,16.1,29.86,NNW,329,6.0,9.0,58,0.00,,---,0.01,202.00,VWS V14.01,2013-03-14 20:12:00,
2013-03-14 16:17:00,28.6,16.1,29.86,NW,313,0.0,10.0,59,0.00,,---,0.01,202.00,VWS V14.01,2013-03-14 20:17:00,
2013-03-14 16:22:00,28.5,16.8,29.86,West,263,0.0,10.0,61,0.00,,---,0.01,167.00,VWS V14.01,2013-03-14 20:22:00,
2013-03-14 16:27:00,28.3,16.6,29.86,WNW,286,0.0,0.0,61,0.86,,---,0.01,127.00,VWS V14.01,2013-03-14 20:27:00,
2013-03-14 16:30:00,28.2,15.3,29.87,West,278,9.0,13.0,58,0.00,,---,0.01,334.00,VWS V14.01,2013-03-14 20:30:00,
2013-03-14 16:32:00,28.3,17.0,29.86,NW,317,5.0,5.0,62,0.00,,---,0.01,179.00,VWS V14.01,2013-03-14 20:32:00,
2013-03-14 16:37:00,28.3,17.3,29.86,West,271,0.0,6.0,63,0.00,,---,0.01,160.00,VWS V14.01,2013-03-14 20:37:00,
2013-03-14 16:42:00,28.3,17.3,29.86,West,279,4.0,6.0,63,0.00,,---,0.01,148.00,VWS V14.01,2013-03-14 20:42:00,
2013-03-14 16:47:00,28.2,16.9,29.86,WNW,282,0.0,6.0,62,0.00,,---,0.01,121.00,VWS V14.01,2013-03-14 20:47:00,
2013-03-14 16:52:00,28.1,17.1,29.87,NW,315,0.0,7.0,63,0.00,,---,0.01,109.00,VWS V14.01,2013-03-14 20:52:00,
2013-03-14 16:57:00,28.0,18.1,29.87,NNW,329,0.0,7.0,66,0.00,,---,0.01,84.00,VWS V14.01,2013-03-14 20:57:00,
2013-03-14 17:00:00,28.4,15.9,29.86,West,281,1.0,14.0,59,0.00,,---,0.01,241.00,VWS V14.01,2013-03-14 21:00:00,
2013-03-14 17:02:00,27.6,18.1,29.88,West,264,0.0,0.0,67,0.00,,---,0.01,81.00,VWS V14.01,2013-03-14 21:02:00,
2013-03-14 17:07:00,27.3,19.1,29.88,NW,313,6.0,6.0,71,0.00,,---,0.01,62.00,VWS V14.01,2013-03-14 21:07:00,
2013-03-14 17:12:00,26.9,19.7,29.88,WSW,257,1.0,6.0,74,0.00,,---,0.01,58.00,VWS V14.01,2013-03-14 21:12:00,
2013-03-14 17:17:00,26.7,20.5,29.88,North,360,5.0,6.0,77,0.00,,---,0.01,63.00,VWS V14.01,2013-03-14 21:17:00,
2013-03-14 17:22:00,26.3,20.7,29.88,East,86,3.0,7.0,79,0.00,,---,0.01,62.00,VWS V14.01,2013-03-14 21:22:00,
2013-03-14 17:27:00,26.0,20.7,29.88,NE,44,1.0,7.0,80,0.00,,---,0.01,60.00,VWS V14.01,2013-03-14 21:27:00,
2013-03-14 17:32:00,25.7,20.7,29.88,NNW,348,0.0,0.0,81,0.00,,---,0.01,88.00,VWS V14.01,2013-03-14 21:32:00,
2013-03-14 17:37:00,25.6,20.9,29.88,West,272,0.0,5.0,82,0.00,,---,0.01,84.00,VWS V14.01,2013-03-14 21:37:00,
2013-03-14 17:42:00,25.6,20.9,29.88,WSW,243,2.0,5.0,82,0.00,,---,0.01,53.00,VWS V14.01,2013-03-14 21:42:00,
2013-03-14 17:47:00,25.7,21.3,29.89,WNW,298,2.0,6.0,83,0.00,,---,0.01,49.00,VWS V14.01,2013-03-14 21:47:00,
2013-03-14 17:52:00,25.7,21.3,29.89,West,262,2.0,6.0,83,0.00,,---,0.01,42.00,VWS V14.01,2013-03-14 21:52:00,
2013-03-14 17:57:00,25.7,21.3,29.89,West,271,2.0,10.0,83,0.00,,---,0.01,56.00,VWS V14.01,2013-03-14 21:57:00,
2013-03-14 18:02:00,25.6,21.2,29.89,North,349,0.0,0.0,83,0.00,,---,0.01,51.00,VWS V14.01,2013-03-14 22:02:00,
2013-03-14 18:07:00,25.6,21.2,29.89,WNW,294,1.0,4.0,83,0.00,,---,0.01,58.00,VWS V14.01,2013-03-14 22:07:00,
2013-03-14 18:12:00,25.7,21.3,29.90,WNW,285,0.0,5.0,83,0.00,,---,0.01,49.00,VWS V14.01,2013-03-14 22:12:00,
2013-03-14 18:17:00,25.6,21.2,29.90,WSW,245,0.0,5.0,83,0.00,,---,0.01,37.00,VWS V14.01,2013-03-14 22:17:00,
2013-03-14 18:22:00,25.5,21.4,29.90,West,267,0.0,5.0,84,0.00,,---,0.01,28.00,VWS V14.01,2013-03-14 22:22:00,
2013-03-14 18:27:00,25.5,21.4,29.90,NNE,24,0.0,5.0,84,0.00,,---,0.01,21.00,VWS V14.01,2013-03-14 22:27:00,
2013-03-14 18:32:00,25.7,21.5,29.90,NW,309,2.0,4.0,84,0.00,,---,0.01,11.00,VWS V14.01,2013-03-14 22:32:00,
2013-03-14 18:37:00,25.7,21.3,29.91,NW,313,0.0,4.0,83,0.00,,---,0.01,5.00,VWS V14.01,2013-03-14 22:37:00,
2013-03-14 18:42:00,25.6,21.7,29.91,West,279,3.0,9.0,85,0.00,,---,0.01,5.00,VWS V14.01,2013-03-14 22:42:00,
2013-03-14 18:47:00,25.3,21.4,29.91,South,172,2.0,9.0,85,0.00,,---,0.01,5.00,VWS V14.01,2013-03-14 22:47:00,
2013-03-14 18:52:00,25.2,21.3,29.91,WNW,302,0.0,9.0,85,0.00,,---,0.01,0.00,VWS V14.01,2013-03-14 22:52:00,
2013-03-14 18:57:00,25.2,21.6,29.91,South,182,0.0,9.0,86,0.00,,---,0.01,0.00,VWS V14.01,2013-03-14 22:57:00,
2013-03-14 19:02:00,25.2,21.0,29.91,West,272,0.0,3.0,84,0.00,,---,0.01,0.00,VWS V14.01,2013-03-14 23:02:00,
2013-03-14 19:07:00,25.4,20.7,29.91,East,86,0.0,5.0,82,0.00,,---,0.01,0.00,VWS V14.01,2013-03-14 23:07:00,
2013-03-14 19:12:00,25.6,20.6,29.92,WSW,242,3.0,6.0,81,0.00,,---,0.01,0.00,VWS V14.01,2013-03-14 23:12:00,
2013-03-14 19:17:00,25.7,20.4,29.92,North,349,0.0,8.0,80,0.00,,---,0.01,0.00,VWS V14.01,2013-03-14 23:17:00,
2013-03-14 19:22:00,25.7,20.4,29.92,NE,36,0.0,8.0,80,0.00,,---,0.01,0.00,VWS V14.01,2013-03-14 23:22:00,
2013-03-14 19:27:00,25.7,20.1,29.92,NNW,332,0.0,9.0,79,0.00,,---,0.01,0.00,VWS V14.01,2013-03-14 23:27:00,
2013-03-14 19:33:00,25.7,19.8,29.92,ENE,78,0.0,6.0,78,0.00,,---,0.01,0.00,VWS V14.01,2013-03-14 23:33:00,
2013-03-14 19:38:00,25.8,19.6,29.92,East,89,0.0,6.0,77,0.00,,---,0.01,0.00,VWS V14.01,2013-03-14 23:38:00,
2013-03-14 19:43:00,25.8,19.3,29.92,NNW,338,0.0,6.0,76,0.00,,---,0.01,0.00,VWS V14.01,2013-03-14 23:43:00,
2013-03-14 19:48:00,25.9,18.8,29.92,NW,308,8.0,14.0,74,0.00,,---,0.01,0.00,VWS V14.01,2013-03-14 23:48:00,
2013-03-14 19:53:00,26.0,18.5,29.92,NNW,343,0.0,14.0,73,0.00,,---,0.01,0.00,VWS V14.01,2013-03-14 23:53:00,
2013-03-14 19:58:00,26.0,18.5,29.92,WNW,288,3.0,14.0,73,0.00,,---,0.01,0.00,VWS V14.01,2013-03-14 23:58:00,
2013-03-14 20:03:00,26.0,18.5,29.92,West,277,0.0,2.0,73,0.00,,---,0.01,0.00,VWS V14.01,2013-03-15 00:03:00,
2013-03-14 20:08:00,26.0,18.5,29.92,East,86,0.0,2.0,73,0.00,,---,0.01,0.00,VWS V14.01,2013-03-15 00:08:00,
2013-03-14 20:13:00,26.0,18.2,29.92,WSW,258,0.0,5.0,72,0.00,,---,0.01,0.00,VWS V14.01,2013-03-15 00:13:00,
2013-03-14 20:18:00,26.0,18.2,29.92,West,281,2.0,11.0,72,0.00,,---,0.01,0.00,VWS V14.01,2013-03-15 00:18:00,
2013-03-14 20:23:00,26.0,18.2,29.92,West,281,0.0,11.0,72,0.00,,---,0.01,0.00,VWS V14.01,2013-03-15 00:23:00,
2013-03-14 20:28:00,26.0,18.2,29.93,WNW,283,0.0,11.0,72,0.00,,---,0.01,0.00,VWS V14.01,2013-03-15 00:28:00,
2013-03-14 20:33:00,26.0,17.9,29.93,WNW,296,2.0,6.0,71,0.00,,---,0.01,0.00,VWS V14.01,2013-03-15 00:33:00,
2013-03-14 20:42:00,26.1,18.0,29.93,NW,311,0.0,0.0,71,0.00,,---,0.01,0.00,VWS V14.01,2013-03-15 00:42:00,
2013-03-14 20:47:00,26.1,18.0,29.92,WNW,302,0.0,3.0,71,0.00,,---,0.01,0.00,VWS V14.01,2013-03-15 00:47:00,
2013-03-14 20:52:00,26.2,18.1,29.92,SSW,195,0.0,4.0,71,0.00,,---,0.01,0.00,VWS V14.01,2013-03-15 00:52:00,
2013-03-14 20:57:00,26.2,18.1,29.92,WSW,252,3.0,4.0,71,0.00,,---,0.01,0.00,VWS V14.01,2013-03-15 00:57:00,
2013-03-14 21:00:00,26.2,17.8,29.92,West,260,0.0,4.0,70,0.00,,---,0.01,0.00,VWS V14.01,2013-03-15 01:00:00,
2013-03-14 21:02:00,26.2,17.8,29.92,WSW,242,0.0,4.0,70,0.00,,---,0.01,0.00,VWS V14.01,2013-03-15 01:02:00,
2013-03-14 21:07:00,26.2,18.1,29.92,East,82,0.0,4.0,71,0.00,,---,0.01,0.00,VWS V14.01,2013-03-15 01:07:00,
2013-03-14 21:12:00,26.3,17.9,29.92,NE,54,3.0,6.0,70,0.00,,---,0.01,0.00,VWS V14.01,2013-03-15 01:12:00,
2013-03-14 21:17:00,26.3,17.9,29.93,SE,127,0.0,6.0,70,0.00,,---,0.01,0.00,VWS V14.01,2013-03-15 01:17:00,
2013-03-14 21:22:00,26.4,18.0,29.92,WSW,250,3.0,7.0,70,0.00,,---,0.01,0.00,VWS V14.01,2013-03-15 01:22:00,
2013-03-14 21:27:00,26.4,17.6,29.92,WSW,255,0.0,7.0,69,0.00,,---,0.01,0.00,VWS V14.01,2013-03-15 01:27:00,
2013-03-14 21:30:00,26.4,18.0,29.92,WNW,282,3.0,7.0,70,0.00,,---,0.01,0.00,VWS V14.01,2013-03-15 01:30:00,
2013-03-14 21:32:00,26.5,17.7,29.93,West,270,4.0,7.0,69,0.00,,---,0.01,0.00,VWS V14.01,2013-03-15 01:32:00,
2013-03-14 21:37:00,26.5,17.7,29.92,West,267,4.0,8.0,69,0.00,,---,0.01,0.00,VWS V14.01,2013-03-15 01:37:00,
2013-03-14 21:43:00,26.5,17.7,29.93,WSW,241,3.0,8.0,69,0.00,,---,0.01,0.00,VWS V14.01,2013-03-15 01:43:00,
2013-03-14 21:48:00,26.5,17.7,29.92,WSW,252,5.0,8.0,69,0.00,,---,0.01,0.00,VWS V14.01,2013-03-15 01:48:00,
2013-03-14 21:53:00,26.6,17.8,29.92,WSW,242,7.0,8.0,69,0.00,,---,0.01,0.00,VWS V14.01,2013-03-15 01:53:00,
2013-03-14 21:58:00,26.6,17.5,29.92,NNW,328,0.0,8.0,68,0.00,,---,0.01,0.00,VWS V14.01,2013-03-15 01:58:00,
2013-03-14 22:00:00,26.7,17.6,29.92,West,267,1.0,9.0,68,0.00,,---,0.01,0.00,VWS V14.01,2013-03-15 02:00:00,
2013-03-14 22:03:00,26.7,17.6,29.92,West,267,0.0,1.0,68,0.00,,---,0.01,0.00,VWS V14.01,2013-03-15 02:03:00,
2013-03-14 22:07:00,26.7,17.6,29.92,West,267,2.0,9.0,68,0.00,,---,0.01,0.00,VWS V14.01,2013-03-15 02:07:00,
2013-03-14 22:12:00,26.8,17.7,29.92,WSW,250,0.0,10.0,68,0.00,,---,0.01,0.00,VWS V14.01,2013-03-15 02:12:00,
2013-03-14 22:17:00,26.8,17.7,29.93,WSW,248,0.0,10.0,68,0.00,,---,0.01,0.00,VWS V14.01,2013-03-15 02:17:00,
2013-03-14 22:23:00,26.9,17.8,29.92,West,259,0.0,10.0,68,0.00,,---,0.01,0.00,VWS V14.01,2013-03-15 02:23:00,
2013-03-14 22:28:00,26.9,17.4,29.93,WSW,246,1.0,10.0,67,0.00,,---,0.01,0.00,VWS V14.01,2013-03-15 02:28:00,
2013-03-14 22:30:00,26.9,17.4,29.92,SW,231,0.0,10.0,67,0.00,,---,0.01,0.00,VWS V14.01,2013-03-15 02:30:00,
2013-03-14 22:32:00,26.9,17.4,29.92,ENE,61,0.0,6.0,67,0.00,,---,0.01,0.00,VWS V14.01,2013-03-15 02:32:00,
2013-03-14 22:37:00,27.0,17.2,29.93,West,268,0.0,13.0,66,0.00,,---,0.01,0.00,VWS V14.01,2013-03-15 02:37:00,
2013-03-14 22:42:00,27.1,17.3,29.93,West,267,0.0,13.0,66,0.00,,---,0.01,0.00,VWS V14.01,2013-03-15 02:42:00,
2013-03-14 22:47:00,27.1,16.6,29.92,West,280,0.0,13.0,64,0.00,,---,0.01,0.00,VWS V14.01,2013-03-15 02:47:00,
2013-03-14 22:53:00,27.2,16.6,29.92,WSW,252,0.0,13.0,64,0.00,,---,0.01,0.00,VWS V14.01,2013-03-15 02:53:00,
2013-03-14 22:58:00,27.3,16.4,29.92,West,270,4.0,13.0,63,0.00,,---,0.01,0.00,VWS V14.01,2013-03-15 02:58:00,
2013-03-14 23:00:00,27.3,16.4,29.93,WSW,254,5.0,13.0,63,0.00,,---,0.01,0.00,VWS V14.01,2013-03-15 03:00:00,
2013-03-14 23:03:00,27.3,16.4,29.93,North,9,0.0,5.0,63,0.00,,---,0.01,0.00,VWS V14.01,2013-03-15 03:03:00,
2013-03-14 23:08:00,27.3,16.4,29.93,South,178,1.0,6.0,63,0.00,,---,0.01,0.00,VWS V14.01,2013-03-15 03:08:00,
2013-03-14 23:13:00,27.3,15.6,29.93,NE,36,0.0,6.0,61,0.00,,---,0.01,0.00,VWS V14.01,2013-03-15 03:13:00,
2013-03-14 23:18:00,27.4,15.7,29.93,West,262,0.0,6.0,61,0.00,,---,0.01,0.00,VWS V14.01,2013-03-15 03:18:00,
2013-03-14 23:23:00,27.5,15.4,29.93,West,277,5.0,9.0,60,0.00,,---,0.01,0.00,VWS V14.01,2013-03-15 03:23:00,
2013-03-14 23:28:00,27.5,15.4,29.93,East,87,3.0,9.0,60,0.00,,---,0.01,0.00,VWS V14.01,2013-03-15 03:28:00,
2013-03-14 23:30:00,27.5,15.8,29.93,SW,219,0.0,9.0,61,0.00,,---,0.01,0.00,VWS V14.01,2013-03-15 03:30:00,
2013-03-14 23:33:00,27.5,15.4,29.93,WSW,248,3.0,4.0,60,0.00,,---,0.01,0.00,VWS V14.01,2013-03-15 03:33:00,
2013-03-14 23:38:00,27.6,15.6,29.93,NW,313,1.0,9.0,60,0.00,,---,0.01,0.00,VWS V14.01,2013-03-15 03:38:00,
2013-03-14 23:43:00,27.6,15.9,29.93,ENE,66,0.0,9.0,61,0.00,,---,0.01,0.00,VWS V14.01,2013-03-15 03:43:00,
2013-03-14 23:48:00,27.5,15.8,29.93,ENE,61,5.0,9.0,61,0.00,,---,0.01,0.00,VWS V14.01,2013-03-15 03:48:00,
2013-03-14 23:53:00,27.5,16.6,29.93,West,272,0.0,9.0,63,0.00,,---,0.01,0.00,VWS V14.01,2013-03-15 03:53:00,
2013-03-14 23:58:00,27.5,16.2,29.93,WNW,300,1.0,9.0,62,0.00,,---,0.01,0.00,VWS V14.01,2013-03-15 03:58:00,